Time;durP1;ratioP1;P1;durP2;ratioP2;P2;SDS_P1;SDS_P2;PMS_P1;PMS_P2;Temp;Humidity;BMP_temperature;BMP_pressure;BME280_temperature;BME280_humidity;BME280_pressure;Samples;Min_cycle;Max_cycle;Signal;HPM_P1;HPM_P2
2023/12/31 00:00:27;;;;;;;2.10;1.10;;;19.30;55.30;;;;;;5038031;28;20500;-70
2023/12/31 00:02:53;;;;;;;1.95;1.08;;;19.30;55.30;;;;;;5036140;28;20024;-70
2023/12/31 00:05:19;;;;;;;2.00;1.33;;;19.30;55.30;;;;;;5037592;28;20034;-70
2023/12/31 00:07:45;;;;;;;1.48;1.00;;;19.30;55.30;;;;;;5037169;28;20029;-70
2023/12/31 00:10:11;;;;;;;1.85;1.20;;;19.30;55.30;;;;;;5036813;28;20029;-70
2023/12/31 00:12:36;;;;;;;1.70;1.10;;;19.30;55.30;;;;;;5038544;28;20083;-70
2023/12/31 00:15:04;;;;;;;1.63;1.08;;;19.30;55.30;;;;;;5036252;28;20033;-70
2023/12/31 00:17:29;;;;;;;1.73;1.08;;;19.30;55.30;;;;;;5036088;28;20526;-70
2023/12/31 00:19:55;;;;;;;1.88;1.10;;;19.30;55.30;;;;;;5037584;28;20044;-70
2023/12/31 00:22:21;;;;;;;1.50;1.10;;;19.30;55.30;;;;;;5037576;28;20037;-70
2023/12/31 00:24:51;;;;;;;1.88;1.10;;;19.30;55.30;;;;;;5050394;28;20025;-70
2023/12/31 00:27:16;;;;;;;;;;;19.30;55.30;;;;;;5036678;28;20118;-70
2023/12/31 00:29:44;;;;;;;2.35;1.27;;;19.30;55.30;;;;;;5037521;28;19909;-66
2023/12/31 00:32:09;;;;;;;2.03;1.10;;;19.30;55.30;;;;;;5034794;28;20080;-67
2023/12/31 00:34:35;;;;;;;2.15;1.10;;;19.30;55.30;;;;;;5038138;28;20030;-65
2023/12/31 00:37:02;;;;;;;1.58;0.98;;;19.30;55.30;;;;;;5037093;28;20064;-66
2023/12/31 00:39:27;;;;;;;2.17;1.20;;;19.30;55.30;;;;;;5052219;28;20025;-66
2023/12/31 00:41:53;;;;;;;1.95;1.27;;;19.30;55.30;;;;;;5037090;28;20236;-66
2023/12/31 00:44:19;;;;;;;1.98;1.20;;;19.20;55.20;;;;;;5036929;28;20041;-66
2023/12/31 00:46:44;;;;;;;1.70;1.10;;;19.20;55.20;;;;;;5036704;28;20059;-66
2023/12/31 00:49:10;;;;;;;1.88;1.10;;;19.20;55.30;;;;;;5051086;28;20408;-70
2023/12/31 00:51:35;;;;;;;1.73;1.13;;;19.20;55.20;;;;;;5044950;28;20037;-70
2023/12/31 00:54:01;;;;;;;1.70;1.08;;;19.20;55.20;;;;;;5037038;28;20091;-70
2023/12/31 00:56:26;;;;;;;1.65;1.17;;;19.20;55.30;;;;;;5037382;28;20025;-70
2023/12/31 00:58:52;;;;;;;2.05;1.30;;;19.20;55.20;;;;;;5035894;28;20155;-70
2023/12/31 01:01:18;;;;;;;1.55;1.00;;;19.20;55.80;;;;;;5042018;28;20515;-70
2023/12/31 01:03:43;;;;;;;1.58;0.95;;;19.20;55.20;;;;;;5037377;28;20031;-70
2023/12/31 01:06:09;;;;;;;1.90;1.10;;;19.20;55.20;;;;;;5040551;28;20385;-70
2023/12/31 01:08:34;;;;;;;2.25;1.30;;;19.20;55.20;;;;;;5038569;28;20093;-70
2023/12/31 01:11:00;;;;;;;1.90;0.90;;;19.20;55.20;;;;;;5038901;28;20465;-70
2023/12/31 01:13:27;;;;;;;1.70;1.00;;;19.20;55.20;;;;;;5037414;28;20057;-70
2023/12/31 01:15:53;;;;;;;1.20;0.85;;;19.20;55.20;;;;;;5040670;28;20021;-70
2023/12/31 01:18:19;;;;;;;1.60;1.13;;;19.20;55.20;;;;;;5035889;28;20033;-69
2023/12/31 01:20:45;;;;;;;1.52;1.00;;;19.20;55.40;;;;;;5040185;28;20056;-70
2023/12/31 01:23:11;;;;;;;1.88;1.17;;;19.20;55.50;;;;;;5040252;28;20565;-71
2023/12/31 01:25:36;;;;;;;1.50;1.00;;;19.20;55.50;;;;;;5040052;28;20029;-70
2023/12/31 01:28:02;;;;;;;2.08;1.30;;;19.20;55.50;;;;;;5041249;28;20140;-70
2023/12/31 01:30:28;;;;;;;1.48;1.05;;;19.20;55.50;;;;;;5041090;28;20536;-70
2023/12/31 01:32:54;;;;;;;1.50;1.00;;;19.20;55.50;;;;;;5033017;28;20112;-70
2023/12/31 01:35:20;;;;;;;2.53;1.55;;;19.20;56.00;;;;;;5039659;28;20453;-70
2023/12/31 01:37:46;;;;;;;1.65;1.15;;;19.20;55.40;;;;;;5040226;28;20105;-70
2023/12/31 01:40:12;;;;;;;2.25;1.30;;;19.20;55.40;;;;;;5040311;28;20443;-70
2023/12/31 01:42:38;;;;;;;2.67;1.20;;;19.20;55.40;;;;;;5038844;28;20112;-70
2023/12/31 01:45:04;;;;;;;1.63;1.17;;;19.20;55.40;;;;;;5039812;28;20504;-70
2023/12/31 01:47:34;;;;;;;1.85;1.20;;;19.20;55.40;;;;;;5037126;28;20021;-70
2023/12/31 01:50:02;;;;;;;1.80;1.17;;;19.20;55.40;;;;;;5039720;28;20068;-70
2023/12/31 01:52:29;;;;;;;2.22;1.30;;;19.20;55.40;;;;;;5040212;28;20504;-70
2023/12/31 01:54:56;;;;;;;1.95;1.20;;;19.20;55.40;;;;;;5053872;28;20037;-70
2023/12/31 01:57:25;;;;;;;1.88;1.30;;;19.20;55.40;;;;;;5040582;28;20040;-70
2023/12/31 01:59:53;;;;;;;1.42;1.00;;;19.20;55.40;;;;;;5038529;28;20036;-65
2023/12/31 02:02:21;;;;;;;1.83;1.05;;;19.20;55.40;;;;;;5036071;28;20079;-66
2023/12/31 02:04:47;;;;;;;1.65;1.08;;;19.20;55.40;;;;;;5036174;28;20091;-66
2023/12/31 02:07:12;;;;;;;1.60;1.05;;;19.20;55.40;;;;;;5037209;28;20038;-66
2023/12/31 02:09:38;;;;;;;1.45;1.00;;;19.10;55.30;;;;;;5040260;28;20033;-65
2023/12/31 02:12:05;;;;;;;1.50;1.10;;;19.20;55.40;;;;;;5039476;28;20037;-67
2023/12/31 02:14:31;;;;;;;2.03;1.10;;;19.20;55.40;;;;;;5039643;28;20045;-66
2023/12/31 02:16:56;;;;;;;1.98;1.15;;;19.20;55.40;;;;;;5039361;28;20025;-66
2023/12/31 02:19:23;;;;;;;1.48;1.02;;;19.20;55.40;;;;;;5039057;28;20626;-67
2023/12/31 02:21:48;;;;;;;1.67;1.10;;;19.20;55.40;;;;;;5039359;28;20040;-65
2023/12/31 02:24:18;;;;;;;1.83;1.20;;;19.20;55.40;;;;;;5038902;28;20541;-66
2023/12/31 02:26:43;;;;;;;;;;;19.20;55.40;;;;;;5039419;28;20477;-65
2023/12/31 02:29:09;;;;;;;1.75;1.02;;;19.20;55.40;;;;;;5038764;28;19924;-66
2023/12/31 02:31:35;;;;;;;1.70;1.17;;;19.20;55.30;;;;;;5039899;28;20469;-65
2023/12/31 02:34:01;;;;;;;1.10;0.90;;;19.20;55.60;;;;;;5030295;28;20394;-65
2023/12/31 02:36:27;;;;;;;1.70;1.10;;;19.20;55.70;;;;;;5038000;28;20025;-64
2023/12/31 02:38:52;;;;;;;1.50;1.10;;;19.20;55.80;;;;;;5036575;28;20432;-65
2023/12/31 02:41:18;;;;;;;1.58;1.00;;;19.10;55.70;;;;;;5040634;28;20059;-65
2023/12/31 02:43:44;;;;;;;1.40;1.00;;;19.10;55.70;;;;;;5038947;28;20503;-65
2023/12/31 02:46:10;;;;;;;1.85;1.10;;;19.10;55.70;;;;;;5038660;28;20041;-65
2023/12/31 02:48:35;;;;;;;1.85;1.02;;;19.10;55.70;;;;;;5036390;28;20478;-70
2023/12/31 02:51:01;;;;;;;1.67;1.42;;;19.10;55.70;;;;;;5032765;28;20079;-70
2023/12/31 02:53:26;;;;;;;1.90;1.20;;;19.10;55.70;;;;;;5038098;28;20033;-70
2023/12/31 02:55:52;;;;;;;1.98;1.30;;;19.10;55.60;;;;;;5038091;28;20047;-70
2023/12/31 02:58:18;;;;;;;1.50;0.93;;;19.10;55.60;;;;;;5039464;28;20057;-71
2023/12/31 03:00:43;;;;;;;1.55;1.05;;;19.10;55.60;;;;;;5038659;28;20100;-70
2023/12/31 03:03:09;;;;;;;2.00;1.30;;;19.10;55.60;;;;;;5036227;28;20051;-69
2023/12/31 03:05:35;;;;;;;2.42;1.20;;;19.10;55.70;;;;;;5037970;28;20413;-70
2023/12/31 03:08:00;;;;;;;1.67;1.17;;;19.10;55.60;;;;;;5035633;28;20033;-69
2023/12/31 03:10:26;;;;;;;1.70;1.10;;;19.10;55.60;;;;;;5037229;28;20540;-70
2023/12/31 03:12:52;;;;;;;2.20;1.10;;;19.10;55.60;;;;;;5037304;28;20064;-70
2023/12/31 03:15:19;;;;;;;1.55;1.10;;;19.10;55.70;;;;;;5037325;28;20071;-70
2023/12/31 03:17:44;;;;;;;1.67;1.08;;;19.10;55.70;;;;;;5039228;28;20037;-70
2023/12/31 03:20:10;;;;;;;1.52;0.95;;;19.10;55.60;;;;;;5032749;28;20048;-70
2023/12/31 03:22:36;;;;;;;1.55;1.00;;;19.10;55.70;;;;;;5036552;28;20043;-69
2023/12/31 03:25:02;;;;;;;1.58;1.08;;;19.10;55.70;;;;;;5038030;28;20108;-70
2023/12/31 03:27:27;;;;;;;1.55;1.00;;;19.10;55.70;;;;;;5036326;28;20034;-70
2023/12/31 03:29:53;;;;;;;1.95;1.10;;;19.10;55.70;;;;;;5037449;28;20079;-70
2023/12/31 03:32:19;;;;;;;2.13;1.23;;;19.10;55.70;;;;;;5037260;28;20116;-70
2023/12/31 03:34:44;;;;;;;1.70;1.05;;;19.10;55.70;;;;;;5035502;28;20579;-70
2023/12/31 03:37:10;;;;;;;1.85;1.10;;;19.10;55.70;;;;;;5038533;28;20469;-70
2023/12/31 03:39:35;;;;;;;2.38;1.30;;;19.10;55.70;;;;;;5036466;28;20472;-70
2023/12/31 03:42:01;;;;;;;2.08;1.27;;;19.10;55.70;;;;;;5039151;28;20033;-70
2023/12/31 03:44:27;;;;;;;1.83;1.10;;;19.10;55.70;;;;;;5036545;28;20033;-70
2023/12/31 03:46:52;;;;;;;1.75;1.10;;;19.10;55.70;;;;;;5033721;28;20109;-70
2023/12/31 03:49:18;;;;;;;1.73;1.00;;;19.10;55.70;;;;;;5033941;28;20036;-70
2023/12/31 03:51:44;;;;;;;1.55;1.00;;;19.10;55.70;;;;;;5036975;28;20464;-70
2023/12/31 03:54:09;;;;;;;1.50;1.10;;;19.10;55.70;;;;;;5036351;28;20476;-70
2023/12/31 03:56:35;;;;;;;1.45;1.00;;;19.10;55.70;;;;;;5038023;28;20544;-70
2023/12/31 03:59:00;;;;;;;1.88;1.20;;;19.10;55.70;;;;;;5038624;28;20104;-66
2023/12/31 04:01:26;;;;;;;1.88;1.20;;;19.10;55.70;;;;;;5033530;28;20033;-65
2023/12/31 04:03:52;;;;;;;1.60;1.05;;;19.10;55.80;;;;;;5033341;28;20035;-66
2023/12/31 04:06:17;;;;;;;1.58;1.00;;;19.00;55.70;;;;;;5034763;28;20454;-65
2023/12/31 04:08:43;;;;;;;2.30;1.30;;;19.00;55.70;;;;;;5038941;28;20116;-65
2023/12/31 04:11:08;;;;;;;1.70;1.10;;;19.00;55.70;;;;;;5036591;28;20030;-67
2023/12/31 04:13:34;;;;;;;1.85;1.10;;;19.00;55.70;;;;;;5037271;28;20028;-66
2023/12/31 04:16:00;;;;;;;1.65;1.10;;;19.00;55.70;;;;;;5039423;28;20115;-65
2023/12/31 04:18:25;;;;;;;1.58;1.10;;;19.10;55.80;;;;;;5036999;28;20888;-66
2023/12/31 04:20:51;;;;;;;1.60;1.00;;;19.10;55.80;;;;;;5034914;28;20030;-66
2023/12/31 04:23:17;;;;;;;1.60;0.98;;;19.00;55.70;;;;;;5039440;28;20065;-65
2023/12/31 04:25:42;;;;;;;1.45;1.00;;;19.10;55.80;;;;;;5035951;28;20561;-66
2023/12/31 04:28:08;;;;;;;1.75;1.20;;;19.00;55.70;;;;;;5037369;28;20107;-66
2023/12/31 04:30:33;;;;;;;1.63;1.10;;;19.00;55.70;;;;;;5038827;28;20470;-66
2023/12/31 04:32:59;;;;;;;1.50;1.10;;;19.00;55.70;;;;;;5036654;28;20497;-65
2023/12/31 04:35:25;;;;;;;2.78;1.30;;;19.00;55.80;;;;;;5039144;28;20032;-65
2023/12/31 04:37:50;;;;;;;1.88;1.30;;;19.00;55.70;;;;;;5041119;28;20021;-65
2023/12/31 04:40:16;;;;;;;1.35;1.00;;;19.00;55.80;;;;;;5040214;28;20079;-67
2023/12/31 04:42:42;;;;;;;1.67;1.17;;;19.00;55.80;;;;;;5040609;28;20462;-67
2023/12/31 04:45:09;;;;;;;1.40;1.10;;;19.00;55.70;;;;;;5041176;28;20033;-66
2023/12/31 04:47:35;;;;;;;1.83;1.15;;;19.00;55.80;;;;;;5042088;28;20587;-67
2023/12/31 04:50:01;;;;;;;1.73;1.30;;;19.00;55.80;;;;;;5038158;28;20036;-64
2023/12/31 04:52:26;;;;;;;1.40;1.10;;;19.00;55.80;;;;;;5040575;28;20028;-65
2023/12/31 04:54:52;;;;;;;1.50;1.05;;;19.00;55.80;;;;;;5040728;28;20017;-65
2023/12/31 04:57:18;;;;;;;1.63;1.10;;;19.00;55.80;;;;;;5039735;28;20362;-65
2023/12/31 04:59:43;;;;;;;1.30;1.00;;;19.00;55.80;;;;;;5040605;28;20495;-65
2023/12/31 05:02:09;;;;;;;1.73;1.10;;;19.00;55.80;;;;;;5041969;28;20037;-65
2023/12/31 05:04:34;;;;;;;1.27;1.00;;;19.00;55.80;;;;;;5038664;28;20104;-66
2023/12/31 05:07:00;;;;;;;1.50;1.10;;;19.00;55.80;;;;;;5037085;28;20030;-65
2023/12/31 05:09:25;;;;;;;1.58;0.93;;;19.00;55.80;;;;;;5040439;28;20056;-65
2023/12/31 05:11:51;;;;;;;1.92;1.05;;;19.00;55.80;;;;;;5039677;28;20088;-64
2023/12/31 05:14:17;;;;;;;1.55;1.00;;;19.00;55.80;;;;;;5038535;28;20026;-65
2023/12/31 05:16:42;;;;;;;1.60;1.10;;;19.00;55.80;;;;;;5057051;28;20059;-65
2023/12/31 05:19:08;;;;;;;2.03;1.00;;;19.00;55.80;;;;;;5035848;28;20060;-66
2023/12/31 05:21:34;;;;;;;1.40;1.00;;;19.00;55.80;;;;;;5039617;28;20021;-66
2023/12/31 05:24:00;;;;;;;1.40;1.00;;;19.00;55.80;;;;;;5039396;28;20532;-67
2023/12/31 05:26:25;;;;;;;1.80;1.20;;;18.90;55.80;;;;;;5037521;28;20558;-66
2023/12/31 05:28:52;;;;;;;1.75;1.20;;;19.00;55.90;;;;;;5040270;28;20066;-65
2023/12/31 05:31:18;;;;;;;1.55;1.05;;;19.00;56.40;;;;;;5040641;28;20095;-70
2023/12/31 05:33:44;;;;;;;1.52;1.10;;;19.00;55.90;;;;;;5039750;28;20481;-70
2023/12/31 05:36:11;;;;;;;1.58;1.10;;;19.00;55.90;;;;;;5037655;28;20025;-69
2023/12/31 05:38:36;;;;;;;1.90;1.20;;;19.00;55.90;;;;;;5039804;28;20396;-70
2023/12/31 05:41:02;;;;;;;1.30;0.90;;;19.00;55.90;;;;;;5037106;28;20034;-70
2023/12/31 05:43:27;;;;;;;2.30;1.20;;;18.90;55.80;;;;;;5039568;28;20028;-70
2023/12/31 05:45:53;;;;;;;1.88;1.30;;;18.90;55.80;;;;;;5040274;28;20469;-70
2023/12/31 05:48:19;;;;;;;1.63;1.10;;;18.90;55.80;;;;;;5038674;28;20021;-70
2023/12/31 05:50:46;;;;;;;1.17;1.00;;;18.90;55.90;;;;;;5037519;28;20037;-70
2023/12/31 05:53:12;;;;;;;1.95;1.10;;;18.90;55.80;;;;;;5038878;28;20132;-70
2023/12/31 05:55:37;;;;;;;1.45;0.95;;;18.90;55.80;;;;;;5038450;28;20136;-70
2023/12/31 05:58:03;;;;;;;1.80;1.20;;;18.90;55.90;;;;;;5039560;28;20496;-70
2023/12/31 06:00:29;;;;;;;1.65;1.13;;;18.90;55.80;;;;;;5040296;28;20032;-70
2023/12/31 06:02:55;;;;;;;1.60;1.10;;;18.90;55.90;;;;;;5039286;28;20481;-70
2023/12/31 06:05:21;;;;;;;1.77;1.20;;;18.90;55.90;;;;;;5038221;28;20039;-69
2023/12/31 06:07:47;;;;;;;1.83;1.20;;;18.90;55.90;;;;;;5038817;28;20556;-70
2023/12/31 06:10:12;;;;;;;1.65;1.20;;;18.90;55.90;;;;;;5039345;28;20035;-70
2023/12/31 06:12:38;;;;;;;1.52;1.10;;;18.90;55.90;;;;;;5039875;28;20083;-70
2023/12/31 06:15:06;;;;;;;1.60;1.10;;;18.90;55.90;;;;;;5040167;28;20021;-70
2023/12/31 06:17:35;;;;;;;1.45;1.10;;;18.90;55.90;;;;;;5039848;28;20148;-70
2023/12/31 06:20:02;;;;;;;2.20;1.10;;;18.90;56.10;;;;;;5039009;28;20034;-70
2023/12/31 06:22:28;;;;;;;1.27;1.00;;;18.90;55.90;;;;;;5038619;28;20419;-70
2023/12/31 06:24:54;;;;;;;1.58;1.17;;;18.90;55.90;;;;;;5040630;28;20151;-70
2023/12/31 06:27:19;;;;;;;1.58;1.10;;;18.90;55.90;;;;;;5037821;28;20034;-70
2023/12/31 06:29:45;;;;;;;1.67;1.08;;;18.90;55.90;;;;;;5039132;28;20037;-70
2023/12/31 06:32:10;;;;;;;1.73;1.20;;;18.90;55.90;;;;;;5039061;28;20371;-70
2023/12/31 06:34:36;;;;;;;1.60;1.20;;;18.90;55.90;;;;;;5036900;28;20029;-70
2023/12/31 06:37:02;;;;;;;1.58;1.10;;;18.90;56.00;;;;;;5037310;28;20107;-70
2023/12/31 06:39:29;;;;;;;1.50;1.10;;;18.90;56.00;;;;;;5039364;28;20121;-66
2023/12/31 06:41:55;;;;;;;1.60;1.20;;;18.90;56.00;;;;;;5037004;28;20071;-66
2023/12/31 06:44:21;;;;;;;1.77;1.10;;;18.90;56.00;;;;;;5040293;28;20534;-66
2023/12/31 06:46:46;;;;;;;1.40;1.02;;;18.90;56.00;;;;;;5038882;28;20029;-65
2023/12/31 06:49:12;;;;;;;1.92;1.15;;;18.90;56.00;;;;;;5038307;28;20826;-66
2023/12/31 06:51:39;;;;;;;1.15;0.90;;;18.90;56.00;;;;;;5036305;28;20470;-65
2023/12/31 06:54:04;;;;;;;1.52;1.00;;;18.90;56.00;;;;;;5038032;28;20021;-66
2023/12/31 06:56:30;;;;;;;1.27;1.00;;;18.90;56.10;;;;;;5036508;28;20493;-64
2023/12/31 06:58:56;;;;;;;1.88;1.30;;;18.90;56.00;;;;;;5038057;28;20121;-65
2023/12/31 07:01:22;;;;;;;1.80;1.20;;;18.90;56.00;;;;;;5039973;28;20057;-66
2023/12/31 07:03:47;;;;;;;1.35;1.10;;;18.90;56.00;;;;;;5038140;28;20495;-64
2023/12/31 07:06:13;;;;;;;1.65;1.15;;;18.90;56.10;;;;;;5033324;28;20025;-67
2023/12/31 07:08:39;;;;;;;1.58;1.13;;;18.90;56.10;;;;;;5037111;28;20079;-65
2023/12/31 07:11:04;;;;;;;1.85;1.20;;;18.90;56.10;;;;;;5036645;28;20048;-71
2023/12/31 07:13:30;;;;;;;1.33;1.00;;;18.90;56.00;;;;;;5037794;28;20079;-70
2023/12/31 07:15:59;;;;;;;1.55;1.10;;;18.90;56.10;;;;;;5036495;28;20056;-70
2023/12/31 07:18:25;;;;;;;1.67;1.20;;;18.90;56.00;;;;;;5039052;28;20334;-70
2023/12/31 07:20:54;;;;;;;1.10;0.95;;;18.90;56.10;;;;;;5034385;28;20167;-71
2023/12/31 07:23:20;;;;;;;1.80;1.10;;;18.90;56.10;;;;;;5037482;28;20047;-71
2023/12/31 07:25:45;;;;;;;1.45;1.10;;;18.90;56.10;;;;;;5039297;28;20549;-70
2023/12/31 07:28:11;;;;;;;2.08;1.17;;;18.90;56.10;;;;;;5035237;28;20056;-71
2023/12/31 07:30:36;;;;;;;1.75;1.20;;;18.80;56.00;;;;;;5035021;28;20036;-70
2023/12/31 07:33:02;;;;;;;1.60;1.00;;;18.90;56.10;;;;;;5038341;28;20032;-71
2023/12/31 07:35:31;;;;;;;1.17;0.93;;;18.80;56.00;;;;;;5034302;28;20025;-69
2023/12/31 07:37:56;;;;;;;1.60;1.20;;;18.90;56.10;;;;;;5036582;28;20025;-72
2023/12/31 07:40:22;;;;;;;1.35;1.02;;;18.90;56.10;;;;;;5038555;28;20067;-69
2023/12/31 07:42:49;;;;;;;1.27;1.02;;;18.90;56.10;;;;;;5037724;28;20412;-71
2023/12/31 07:45:15;;;;;;;1.50;1.05;;;18.80;56.00;;;;;;5037546;28;20033;-70
2023/12/31 07:47:42;;;;;;;1.70;1.02;;;18.80;56.10;;;;;;5018566;28;20024;-70
2023/12/31 07:50:08;;;;;;;1.48;1.10;;;18.80;56.10;;;;;;5037186;28;20021;-70
2023/12/31 07:52:34;;;;;;;1.80;1.20;;;18.80;56.00;;;;;;5037127;28;20035;-71
2023/12/31 07:55:00;;;;;;;1.65;1.10;;;18.80;56.10;;;;;;5037480;28;20029;-71
2023/12/31 07:57:25;;;;;;;1.65;1.20;;;18.80;56.10;;;;;;5038401;28;20112;-71
2023/12/31 07:59:51;;;;;;;1.48;1.00;;;18.80;56.10;;;;;;5052445;28;20056;-72
2023/12/31 08:02:17;;;;;;;1.63;1.02;;;18.80;56.10;;;;;;5039052;28;20021;-74
2023/12/31 08:04:42;;;;;;;1.63;1.13;;;18.90;56.10;;;;;;5038430;28;20061;-72
2023/12/31 08:07:08;;;;;;;2.10;1.20;;;18.90;56.10;;;;;;5036351;28;20045;-72
2023/12/31 08:09:34;;;;;;;1.50;1.08;;;18.80;56.10;;;;;;5041110;28;20033;-72
2023/12/31 08:12:00;;;;;;;1.20;0.95;;;18.80;56.10;;;;;;5040236;28;20039;-74
2023/12/31 08:14:25;;;;;;;1.33;1.00;;;18.80;56.10;;;;;;5040103;28;20116;-72
2023/12/31 08:16:51;;;;;;;1.55;1.10;;;18.80;56.10;;;;;;5042550;28;20029;-71
2023/12/31 08:19:16;;;;;;;1.73;1.27;;;18.80;56.10;;;;;;5041932;28;20035;-73
2023/12/31 08:21:42;;;;;;;1.60;1.20;;;18.80;56.10;;;;;;5040187;28;20039;-66
2023/12/31 08:24:08;;;;;;;1.50;1.00;;;18.80;56.10;;;;;;5041021;28;20017;-66
2023/12/31 08:26:35;;;;;;;1.30;0.93;;;18.80;56.10;;;;;;5038932;28;20046;-66
2023/12/31 08:29:02;;;;;;;1.33;1.10;;;18.80;56.10;;;;;;5041811;28;20032;-63
2023/12/31 08:31:27;;;;;;;1.58;1.10;;;18.80;56.10;;;;;;5041523;28;20025;-66
2023/12/31 08:33:53;;;;;;;1.67;1.13;;;18.80;56.10;;;;;;5042174;28;20044;-65
2023/12/31 08:36:19;;;;;;;1.60;1.00;;;18.80;56.10;;;;;;5038956;28;20029;-65
2023/12/31 08:38:44;;;;;;;1.80;1.10;;;18.80;56.10;;;;;;5042935;28;20055;-65
2023/12/31 08:41:10;;;;;;;1.85;1.20;;;18.80;56.10;;;;;;5041779;28;20079;-66
2023/12/31 08:43:36;;;;;;;1.58;1.10;;;18.80;56.10;;;;;;5039417;28;20037;-64
2023/12/31 08:46:02;;;;;;;1.10;0.95;;;18.80;56.10;;;;;;5041206;28;20090;-65
2023/12/31 08:48:28;;;;;;;1.98;1.40;;;18.80;56.10;;;;;;5041025;28;20033;-65
2023/12/31 08:50:54;;;;;;;1.55;1.10;;;18.80;56.10;;;;;;5039164;28;20059;-65
2023/12/31 08:53:20;;;;;;;1.27;0.82;;;18.80;56.10;;;;;;5040135;28;20507;-65
2023/12/31 08:55:47;;;;;;;1.60;1.23;;;18.80;56.10;;;;;;5037636;28;20029;-64
2023/12/31 08:58:13;;;;;;;1.38;1.05;;;18.80;56.10;;;;;;5039108;28;20089;-66
2023/12/31 09:00:39;;;;;;;1.50;1.10;;;18.80;56.10;;;;;;5041291;28;20052;-65
2023/12/31 09:03:04;;;;;;;1.70;1.00;;;18.80;56.10;;;;;;5040683;28;20025;-65
2023/12/31 09:05:30;;;;;;;1.52;1.00;;;18.80;56.10;;;;;;5038930;28;20084;-65
2023/12/31 09:07:56;;;;;;;2.00;1.20;;;18.70;56.00;;;;;;5037219;28;20037;-66
2023/12/31 09:10:22;;;;;;;1.85;1.10;;;18.70;56.10;;;;;;5039883;28;20027;-66
2023/12/31 09:12:47;;;;;;;1.40;1.10;;;18.70;56.00;;;;;;5039539;28;20040;-66
2023/12/31 09:15:13;;;;;;;2.33;1.13;;;18.70;56.00;;;;;;5040262;28;20079;-66
2023/12/31 09:17:38;;;;;;;1.80;1.08;;;18.80;56.10;;;;;;5039494;28;20025;-65
2023/12/31 09:20:06;;;;;;;1.63;1.10;;;18.80;56.10;;;;;;5041574;28;20409;-65
2023/12/31 09:22:32;;;;;;;1.85;1.20;;;18.70;56.00;;;;;;5037126;28;20532;-65
2023/12/31 09:24:58;;;;;;;1.58;1.10;;;18.70;56.00;;;;;;5040044;28;20030;-66
2023/12/31 09:27:24;;;;;;;1.20;0.90;;;18.70;56.10;;;;;;5041057;28;20107;-65
2023/12/31 09:29:50;;;;;;;1.65;1.13;;;18.70;56.10;;;;;;5039713;28;20116;-70
2023/12/31 09:32:16;;;;;;;1.27;1.02;;;18.70;56.10;;;;;;5041064;28;20459;-70
2023/12/31 09:34:42;;;;;;;1.70;1.10;;;18.70;56.10;;;;;;5039161;28;20028;-70
2023/12/31 09:37:08;;;;;;;1.83;1.30;;;18.70;56.10;;;;;;5036141;28;20039;-70
2023/12/31 09:39:34;;;;;;;1.48;1.20;;;18.70;56.10;;;;;;5039234;28;20060;-70
2023/12/31 09:42:10;;;;;;;1.70;1.20;;;18.70;56.10;;;;;;5038815;28;20065;-70
2023/12/31 09:44:36;;;;;;;1.17;0.93;;;18.70;56.10;;;;;;5038615;28;20037;-70
2023/12/31 09:47:05;;;;;;;1.40;1.10;;;18.70;56.10;;;;;;5039876;28;20037;-71
2023/12/31 09:49:34;;;;;;;1.65;1.17;;;18.70;56.10;;;;;;5039223;28;20025;-71
2023/12/31 09:52:03;;;;;;;1.70;1.00;;;18.70;56.10;;;;;;5038395;28;20076;-64
2023/12/31 09:54:30;;;;;;;1.30;1.00;;;18.70;56.00;;;;;;5041464;28;20389;-64
2023/12/31 09:56:57;;;;;;;1.60;1.10;;;18.70;56.10;;;;;;5038440;28;20541;-65
2023/12/31 09:59:25;;;;;;;1.88;1.10;;;18.70;56.10;;;;;;5040227;28;20080;-66
2023/12/31 10:01:53;;;;;;;1.38;1.10;;;18.70;56.10;;;;;;5039402;28;20025;-65
2023/12/31 10:04:20;;;;;;;1.65;1.20;;;18.70;56.10;;;;;;5040843;28;20028;-65
2023/12/31 10:06:46;;;;;;;1.38;1.02;;;18.70;56.10;;;;;;5034374;28;20401;-65
2023/12/31 10:09:17;;;;;;;1.58;1.10;;;18.70;56.10;;;;;;5038610;28;20021;-65
2023/12/31 10:11:42;;;;;;;1.65;0.90;;;18.70;56.60;;;;;;5039753;28;20386;-65
2023/12/31 10:14:08;;;;;;;1.58;1.08;;;18.70;56.10;;;;;;5037290;28;20021;-66
2023/12/31 10:16:40;;;;;;;1.50;1.13;;;18.70;56.10;;;;;;5038556;28;20025;-65
2023/12/31 10:19:07;;;;;;;1.48;1.10;;;18.70;56.10;;;;;;5039337;28;20055;-66
2023/12/31 10:21:33;;;;;;;1.85;1.13;;;18.70;56.10;;;;;;5036464;28;20032;-71
2023/12/31 10:23:58;;;;;;;1.60;1.08;;;18.70;56.10;;;;;;5038095;28;20026;-65
2023/12/31 10:26:24;;;;;;;1.80;1.13;;;18.70;56.10;;;;;;5038732;28;20040;-66
2023/12/31 10:28:50;;;;;;;1.65;1.10;;;18.60;56.10;;;;;;5038889;28;20738;-64
2023/12/31 10:31:16;;;;;;;1.90;1.30;;;18.60;56.10;;;;;;5035875;28;20107;-65
2023/12/31 10:33:42;;;;;;;1.90;1.20;;;18.60;56.10;;;;;;5037148;28;20025;-68
2023/12/31 10:36:07;;;;;;;1.70;1.20;;;18.70;56.20;;;;;;5039590;28;20035;-65
2023/12/31 10:38:47;;;;;;;1.85;1.30;;;18.70;56.20;;;;;;5031612;28;20029;-65
2023/12/31 10:41:17;;;;;;;;;;;18.60;56.10;;;;;;5039475;28;20031;-65
2023/12/31 10:43:46;;;;;;;2.00;1.27;;;18.70;56.20;;;;;;5037932;28;19908;-65
2023/12/31 10:46:13;;;;;;;;;;;18.60;56.10;;;;;;5041942;28;20032;-66
2023/12/31 10:48:49;;;;;;;2.00;1.40;;;18.60;56.10;;;;;;5039352;28;19904;-65
2023/12/31 10:51:23;;;;;;;2.10;1.30;;;18.60;56.10;;;;;;5035954;28;20116;-66
2023/12/31 10:53:51;;;;;;;1.92;1.30;;;18.60;56.10;;;;;;5037954;28;20028;-65
2023/12/31 10:56:18;;;;;;;1.88;1.20;;;18.70;56.20;;;;;;5038997;28;20025;-65
2023/12/31 10:58:45;;;;;;;3.30;1.30;;;18.60;56.20;;;;;;5039036;28;20057;-64
2023/12/31 11:01:11;;;;;;;2.40;1.30;;;18.60;56.20;;;;;;5039814;28;20155;-67
2023/12/31 11:03:40;;;;;;;1.88;1.20;;;18.60;56.30;;;;;;5037798;28;20389;-69
2023/12/31 11:06:06;;;;;;;2.60;1.42;;;18.60;56.20;;;;;;5038853;28;20031;-68
2023/12/31 11:08:32;;;;;;;2.38;1.55;;;18.60;56.30;;;;;;5035080;28;20044;-69
2023/12/31 11:10:58;;;;;;;2.65;1.35;;;18.60;56.30;;;;;;5037519;28;20045;-68
2023/12/31 11:13:26;;;;;;;1.83;1.20;;;18.60;56.30;;;;;;5036852;28;20091;-68
2023/12/31 11:15:54;;;;;;;3.53;1.50;;;18.60;56.30;;;;;;5036373;28;20079;-69
2023/12/31 11:19:12;;;;;;;2.10;1.45;;;18.60;56.30;;;;;;5036721;28;20151;-68
2023/12/31 11:22:09;;;;;;;2.47;1.55;;;18.60;56.30;;;;;;5022256;28;20040;-68
2023/12/31 11:24:35;;;;;;;2.17;1.40;;;18.60;56.30;;;;;;5053515;28;20497;-69
2023/12/31 11:27:08;;;;;;;2.15;1.50;;;18.60;56.30;;;;;;5035954;28;20112;-69
2023/12/31 11:29:33;;;;;;;2.13;1.33;;;18.60;56.30;;;;;;5036221;28;20489;-69
2023/12/31 11:31:59;;;;;;;2.95;1.45;;;18.60;56.30;;;;;;5034969;28;20112;-69
2023/12/31 11:34:25;;;;;;;3.08;1.70;;;18.60;56.30;;;;;;5039680;28;20022;-69
2023/12/31 11:36:54;;;;;;;2.78;1.80;;;18.60;56.30;;;;;;5038590;28;20453;-70
2023/12/31 11:39:21;;;;;;;3.75;1.60;;;18.60;56.30;;;;;;5037191;28;20032;-70
2023/12/31 11:41:52;;;;;;;2.28;1.50;;;18.60;56.30;;;;;;5037769;28;20147;-70
2023/12/31 11:44:37;;;;;;;2.63;1.70;;;18.60;56.40;;;;;;5036139;28;20471;-69
2023/12/31 11:47:03;;;;;;;2.60;1.70;;;18.60;56.40;;;;;;5038664;28;20024;-69
2023/12/31 11:49:30;;;;;;;2.70;1.67;;;18.60;56.30;;;;;;5037835;28;20031;-69
2023/12/31 11:52:01;;;;;;;3.35;2.00;;;18.60;56.40;;;;;;5038674;28;21047;-67
2023/12/31 11:54:39;;;;;;;3.00;1.80;;;18.60;56.40;;;;;;5037720;28;20452;-65
2023/12/31 11:57:13;;;;;;;2.30;1.63;;;18.50;56.30;;;;;;5039112;28;20075;-65
2023/12/31 11:59:42;;;;;;;2.75;1.88;;;18.60;56.40;;;;;;5035299;28;20023;-65
2023/12/31 12:02:07;;;;;;;2.92;1.92;;;18.50;56.40;;;;;;5036653;28;20057;-66
2023/12/31 12:04:34;;;;;;;3.38;1.80;;;18.50;56.40;;;;;;5037819;28;20052;-65
2023/12/31 12:07:00;;;;;;;3.20;2.05;;;18.50;56.40;;;;;;5039973;28;20043;-66
2023/12/31 12:09:27;;;;;;;3.42;1.88;;;18.50;56.40;;;;;;5036176;28;20648;-65
2023/12/31 12:12:08;;;;;;;3.10;1.98;;;18.50;56.40;;;;;;5035228;28;20030;-69
2023/12/31 12:14:34;;;;;;;4.03;1.90;;;18.50;56.50;;;;;;5034479;28;20026;-69
2023/12/31 12:17:00;;;;;;;2.88;1.90;;;18.50;56.50;;;;;;5038515;28;20024;-69
2023/12/31 12:19:26;;;;;;;2.80;1.85;;;18.50;56.40;;;;;;5037383;28;20132;-70
2023/12/31 12:21:53;;;;;;;3.25;2.10;;;18.50;56.40;;;;;;5037711;28;20539;-69
2023/12/31 12:24:19;;;;;;;3.58;1.92;;;18.60;56.50;;;;;;5035066;28;20053;-69
2023/12/31 12:26:49;;;;;;;4.05;2.10;;;18.60;56.50;;;;;;5038016;28;20049;-70
2023/12/31 12:29:18;;;;;;;3.10;2.00;;;18.60;56.50;;;;;;5035012;28;20075;-69
2023/12/31 12:31:46;;;;;;;;;;;18.60;56.50;;;;;;5037597;28;20113;-69
2023/12/31 12:34:16;;;;;;;3.65;2.38;;;18.60;56.50;;;;;;5038014;28;19904;-67
2023/12/31 12:36:46;;;;;;;3.63;2.22;;;18.60;56.50;;;;;;5037869;28;20056;-69
2023/12/31 12:39:20;;;;;;;3.92;2.30;;;18.60;56.60;;;;;;5034439;28;20056;-68
2023/12/31 12:41:55;;;;;;;3.53;2.22;;;18.60;56.60;;;;;;5037048;28;20077;-65
2023/12/31 12:44:23;;;;;;;3.40;2.10;;;18.60;56.70;;;;;;5037345;28;20025;-63